createdAt,value
2018-05-06T00:02:24.727Z,100786.82
2018-05-06T00:04:50.738Z,100778.47
2018-05-06T00:07:16.691Z,100788.20
2018-05-06T00:09:42.636Z,100789.80
2018-05-06T00:12:08.572Z,100788.00
2018-05-06T00:14:34.601Z,100795.53
2018-05-06T00:17:00.557Z,100790.98
2018-05-06T00:19:26.501Z,100793.53
2018-05-06T00:21:52.471Z,100793.67
2018-05-06T00:24:18.432Z,100792.38
2018-05-06T00:26:44.391Z,100793.69
2018-05-06T00:29:10.327Z,100802.39
2018-05-06T00:31:36.271Z,100805.21
2018-05-06T00:34:02.262Z,100802.75
2018-05-06T00:36:28.217Z,100804.52
2018-05-06T00:38:54.176Z,100797.31
2018-05-06T00:41:20.140Z,100800.80
2018-05-06T00:43:46.095Z,100802.36
2018-05-06T00:46:12.039Z,100792.44
2018-05-06T00:48:37.997Z,100801.26
2018-05-06T00:51:03.947Z,100799.20
2018-05-06T00:53:29.916Z,100795.43
2018-05-06T00:55:55.864Z,100796.83
2018-05-06T00:58:21.942Z,100795.57
2018-05-06T01:00:47.951Z,100804.08
2018-05-06T01:03:13.902Z,100802.58
2018-05-06T01:05:39.857Z,100804.80
2018-05-06T01:08:05.800Z,100798.29
2018-05-06T01:10:31.790Z,100800.28
2018-05-06T01:12:57.727Z,100805.78
2018-05-06T01:15:23.680Z,100813.36
2018-05-06T01:17:49.642Z,100811.91
2018-05-06T01:20:15.605Z,100815.33
2018-05-06T01:22:41.531Z,100812.62
2018-05-06T01:25:07.545Z,100810.89
2018-05-06T01:27:33.472Z,100818.20
2018-05-06T01:29:59.426Z,100816.63
2018-05-06T01:32:25.385Z,100818.88
2018-05-06T01:34:51.332Z,100819.16
2018-05-06T01:37:17.263Z,100820.66
2018-05-06T01:39:43.228Z,100816.85
2018-05-06T01:42:09.159Z,100826.59
2018-05-06T01:44:35.097Z,100817.31
2018-05-06T01:47:01.088Z,100818.35
2018-05-06T01:49:27.051Z,100820.42
2018-05-06T01:51:52.986Z,100819.11
2018-05-06T01:54:18.934Z,100820.55
2018-05-06T01:56:44.902Z,100816.18
2018-05-06T01:59:10.850Z,100817.64
2018-05-06T02:01:36.789Z,100811.25
2018-05-06T02:04:02.713Z,100818.17
2018-05-06T02:06:28.644Z,100819.56
2018-05-06T02:08:54.612Z,100815.47
2018-05-06T02:11:20.572Z,100810.48
2018-05-06T02:13:46.532Z,100803.67
2018-05-06T02:16:12.499Z,100806.29
2018-05-06T02:18:38.433Z,100806.44
2018-05-06T02:21:04.372Z,100808.05
2018-05-06T02:23:30.310Z,100805.89
2018-05-06T02:25:56.276Z,100804.29
2018-05-06T02:28:22.231Z,100816.34
2018-05-06T02:30:48.198Z,100810.62
2018-05-06T02:33:14.140Z,100810.77
2018-05-06T02:35:40.099Z,100808.83
2018-05-06T02:38:06.068Z,100809.54
2018-05-06T02:40:32.017Z,100805.67
2018-05-06T02:42:57.964Z,100808.87
2018-05-06T02:45:23.927Z,100808.27
2018-05-06T02:47:49.877Z,100809.85
2018-05-06T02:50:15.847Z,100815.41
2018-05-06T02:52:41.769Z,100822.39
2018-05-06T02:55:07.720Z,100825.20
2018-05-06T02:57:33.656Z,100821.45
2018-05-06T02:59:59.605Z,100820.98
2018-05-06T03:02:25.542Z,100827.40
2018-05-06T03:04:51.498Z,100827.80
2018-05-06T03:07:17.461Z,100820.61
2018-05-06T03:09:43.421Z,100825.25
2018-05-06T03:12:09.380Z,100823.31
2018-05-06T03:14:35.350Z,100820.47
2018-05-06T03:17:01.277Z,100823.57
2018-05-06T03:19:27.233Z,100820.06
2018-05-06T03:21:53.166Z,100824.03
2018-05-06T03:24:19.110Z,100824.38
2018-05-06T03:26:45.048Z,100829.80
2018-05-06T03:29:10.998Z,100825.91
2018-05-06T03:31:36.975Z,100833.24
2018-05-06T03:34:02.933Z,100835.68
2018-05-06T03:36:28.929Z,100836.59
2018-05-06T03:38:54.883Z,100839.92
2018-05-06T03:41:20.852Z,100839.34
2018-05-06T03:43:46.829Z,100834.47
2018-05-06T03:46:12.768Z,100838.20
2018-05-06T03:48:38.741Z,100835.55
2018-05-06T03:51:04.712Z,100836.59
2018-05-06T03:53:30.653Z,100836.87
2018-05-06T03:55:56.608Z,100842.31
2018-05-06T03:58:22.589Z,100842.61
2018-05-06T04:00:48.543Z,100840.23
2018-05-06T04:03:14.489Z,100835.83
2018-05-06T04:05:40.464Z,100839.39
2018-05-06T04:08:06.412Z,100846.22
2018-05-06T04:10:32.369Z,100851.69
2018-05-06T04:12:58.315Z,100842.76
2018-05-06T04:15:24.240Z,100840.14
2018-05-06T04:17:50.173Z,100850.21
2018-05-06T04:20:16.118Z,100858.39
2018-05-06T04:22:42.076Z,100854.52
2018-05-06T04:25:08.031Z,100863.11
2018-05-06T04:27:33.961Z,100865.55
2018-05-06T04:29:59.912Z,100860.20
2018-05-06T04:32:25.871Z,100866.98
2018-05-06T04:34:51.835Z,100866.70
2018-05-06T04:37:17.792Z,100864.41
2018-05-06T04:39:43.772Z,100863.27
2018-05-06T04:44:42.082Z,100860.27
2018-05-06T04:47:08.060Z,100863.58
2018-05-06T04:49:34.034Z,100855.69
2018-05-06T04:52:00.061Z,100859.34
2018-05-06T04:54:25.926Z,100854.37
2018-05-06T04:56:51.860Z,100850.07
2018-05-06T04:59:17.820Z,100855.65
2018-05-06T05:01:43.783Z,100849.58
2018-05-06T05:04:09.725Z,100849.14
2018-05-06T05:06:35.715Z,100848.26
2018-05-06T05:09:01.705Z,100849.48
2018-05-06T05:11:27.691Z,100847.09
2018-05-06T05:13:53.657Z,100844.61
2018-05-06T05:16:19.617Z,100845.58
2018-05-06T05:18:45.545Z,100844.44
2018-05-06T05:21:11.499Z,100842.22
2018-05-06T05:23:37.461Z,100844.78
2018-05-06T05:26:03.418Z,100839.70
2018-05-06T05:28:29.388Z,100843.66
2018-05-06T05:30:55.371Z,100848.49
2018-05-06T05:33:21.330Z,100850.62
2018-05-06T05:35:47.283Z,100848.20
2018-05-06T05:38:13.237Z,100855.90
2018-05-06T05:40:39.186Z,100854.55
2018-05-06T05:43:05.154Z,100857.43
2018-05-06T05:45:34.824Z,100856.73
2018-05-06T05:48:00.830Z,100855.47
2018-05-06T05:50:26.784Z,100850.22
2018-05-06T05:52:52.737Z,100847.43
2018-05-06T05:55:19.706Z,100841.92
2018-05-06T05:57:45.663Z,100850.41
2018-05-06T06:00:11.616Z,100850.83
2018-05-06T06:02:37.580Z,100854.17
2018-05-06T06:05:03.522Z,100849.47
2018-05-06T06:07:29.467Z,100859.12
2018-05-06T06:09:55.420Z,100855.72
2018-05-06T06:12:21.392Z,100858.20
2018-05-06T06:14:47.355Z,100856.09
2018-05-06T06:17:13.314Z,100857.27
2018-05-06T06:19:39.258Z,100861.78
2018-05-06T06:22:05.209Z,100855.84
2018-05-06T06:24:31.179Z,100858.16
2018-05-06T06:26:57.129Z,100861.06
2018-05-06T06:29:23.078Z,100865.08
2018-05-06T06:31:49.024Z,100857.94
2018-05-06T06:34:14.972Z,100859.84
2018-05-06T06:36:40.914Z,100860.20
2018-05-06T06:39:06.851Z,100854.75
2018-05-06T06:41:32.797Z,100856.23
2018-05-06T06:43:58.804Z,100857.41
2018-05-06T06:46:24.784Z,100857.31
2018-05-06T06:48:50.788Z,100859.34
2018-05-06T06:51:16.734Z,100861.02
2018-05-06T06:53:42.704Z,100859.92
2018-05-06T06:56:08.700Z,100858.94
2018-05-06T06:58:34.650Z,100855.22
2018-05-06T07:01:00.592Z,100856.48
2018-05-06T07:03:26.540Z,100858.73
2018-05-06T07:05:52.672Z,100853.85
2018-05-06T07:08:19.325Z,100855.03
2018-05-06T07:10:45.279Z,100855.07
2018-05-06T07:13:11.229Z,100862.69
2018-05-06T07:15:37.159Z,100857.75
2018-05-06T07:18:03.142Z,100856.11
2018-05-06T07:20:29.105Z,100857.45
2018-05-06T07:22:55.125Z,100856.33
2018-05-06T07:25:21.072Z,100861.25
2018-05-06T07:27:47.040Z,100856.77
2018-05-06T07:30:12.990Z,100862.80
2018-05-06T07:32:38.926Z,100856.19
2018-05-06T07:35:04.881Z,100859.67
2018-05-06T07:37:30.861Z,100860.83
2018-05-06T07:39:56.847Z,100863.08
2018-05-06T07:42:22.838Z,100861.91
2018-05-06T07:44:48.779Z,100856.27
2018-05-06T07:47:14.710Z,100861.94
2018-05-06T07:49:40.681Z,100866.63
2018-05-06T07:52:06.642Z,100864.28
2018-05-06T07:54:32.610Z,100869.24
2018-05-06T07:56:58.619Z,100871.20
2018-05-06T07:59:24.648Z,100870.13
2018-05-06T08:01:50.625Z,100879.50
2018-05-06T08:04:16.597Z,100877.80
2018-05-06T08:06:42.540Z,100883.20
2018-05-06T08:09:08.523Z,100881.10
2018-05-06T08:11:34.497Z,100882.08
2018-05-06T08:14:00.467Z,100888.08
2018-05-06T08:16:26.488Z,100876.52
2018-05-06T08:18:52.436Z,100884.06
2018-05-06T08:21:18.395Z,100881.78
2018-05-06T08:23:48.598Z,100881.55
2018-05-06T08:26:14.571Z,100879.05
2018-05-06T08:28:40.520Z,100876.39
2018-05-06T08:31:06.484Z,100880.18
2018-05-06T08:33:32.481Z,100874.92
2018-05-06T08:35:58.404Z,100875.40
2018-05-06T08:38:24.378Z,100872.40
2018-05-06T08:40:50.350Z,100870.12
2018-05-06T08:43:16.293Z,100864.74
2018-05-06T08:45:42.295Z,100878.67
2018-05-06T08:48:08.236Z,100854.69
2018-05-06T08:50:34.214Z,100862.89
2018-05-06T08:53:00.178Z,100858.74
2018-05-06T08:55:26.136Z,100854.57
2018-05-06T08:57:52.076Z,100859.31
2018-05-06T09:00:18.055Z,100855.09
2018-05-06T09:02:44.007Z,100858.55
2018-05-06T09:05:10.034Z,100860.28
2018-05-06T09:07:35.962Z,100870.67
2018-05-06T09:10:01.937Z,100862.41
2018-05-06T09:12:27.931Z,100865.47
2018-05-06T09:14:53.929Z,100861.56
2018-05-06T09:17:19.873Z,100860.41
2018-05-06T09:19:45.878Z,100870.44
2018-05-06T09:22:11.792Z,100858.97
2018-05-06T09:24:37.773Z,100867.94
2018-05-06T09:27:04.860Z,100860.37
2018-05-06T09:29:30.849Z,100865.44
2018-05-06T09:31:56.781Z,100847.98
2018-05-06T09:34:22.760Z,100861.98
2018-05-06T09:41:57.404Z,100847.60
2018-05-06T09:46:56.805Z,100843.00
2018-05-06T09:49:22.796Z,100845.02
2018-05-06T09:51:48.805Z,100842.16
2018-05-06T09:54:14.749Z,100845.92
2018-05-06T09:56:40.765Z,100838.86
2018-05-06T09:59:06.764Z,100836.80
2018-05-06T10:01:32.809Z,100845.42
2018-05-06T10:03:58.728Z,100834.91
2018-05-06T10:06:24.768Z,100835.08
2018-05-06T10:08:50.763Z,100834.27
2018-05-06T10:11:16.809Z,100827.39
2018-05-06T10:13:42.762Z,100831.61
2018-05-06T10:16:08.710Z,100835.82
2018-05-06T10:18:34.662Z,100833.28
2018-05-06T10:21:00.613Z,100819.64
2018-05-06T10:23:26.572Z,100822.05
2018-05-06T10:25:52.539Z,100825.89
2018-05-06T10:28:18.869Z,100823.95
2018-05-06T10:30:44.830Z,100822.52
2018-05-06T10:33:10.770Z,100820.47
2018-05-06T10:35:36.744Z,100827.58
2018-05-06T10:38:02.681Z,100816.60
2018-05-06T10:40:28.679Z,100815.44
2018-05-06T10:42:54.643Z,100816.17
2018-05-06T10:45:20.624Z,100822.08
2018-05-06T10:47:46.588Z,100809.36
2018-05-06T10:50:12.569Z,100807.19
2018-05-06T10:52:38.595Z,100796.52
2018-05-06T10:55:04.656Z,100801.25
2018-05-06T10:57:30.667Z,100800.71
2018-05-06T10:59:56.660Z,100800.22
2018-05-06T11:02:22.625Z,100803.27
2018-05-06T11:04:48.576Z,100799.42
2018-05-06T11:07:14.547Z,100803.69
2018-05-06T11:09:40.580Z,100791.05
2018-05-06T11:12:06.522Z,100791.53
2018-05-06T11:14:32.472Z,100793.55
2018-05-06T11:16:58.422Z,100801.00
2018-05-06T11:19:24.402Z,100792.23
2018-05-06T11:21:50.376Z,100788.39
2018-05-06T11:24:16.333Z,100784.70
2018-05-06T11:26:42.282Z,100787.59
2018-05-06T11:29:08.223Z,100781.17
2018-05-06T11:31:34.190Z,100785.36
2018-05-06T11:34:00.189Z,100785.41
2018-05-06T11:36:26.141Z,100780.66
2018-05-06T11:38:52.093Z,100784.53
2018-05-06T11:41:18.052Z,100778.63
2018-05-06T11:43:44.007Z,100775.98
2018-05-06T11:46:11.048Z,100767.17
2018-05-06T11:48:37.003Z,100770.09
2018-05-06T11:51:02.969Z,100773.60
2018-05-06T11:53:29.082Z,100750.61
2018-05-06T11:55:55.084Z,100782.87
2018-05-06T11:58:21.048Z,100773.44
2018-05-06T12:00:47.013Z,100772.63
2018-05-06T12:03:12.977Z,100767.58
2018-05-06T12:05:38.953Z,100755.19
2018-05-06T12:08:05.041Z,100754.20
2018-05-06T12:10:31.036Z,100756.59
2018-05-06T12:12:57.018Z,100768.23
2018-05-06T12:15:23.002Z,100744.39
2018-05-06T12:17:48.961Z,100748.14
2018-05-06T12:20:14.908Z,100745.44
2018-05-06T12:22:40.881Z,100742.45
2018-05-06T12:25:06.854Z,100739.02
2018-05-06T12:27:32.818Z,100731.75
2018-05-06T12:29:58.786Z,100726.09
2018-05-06T12:32:24.709Z,100724.02
2018-05-06T12:34:50.719Z,100716.91
2018-05-06T12:37:16.693Z,100721.06
2018-05-06T12:39:42.659Z,100714.21
2018-05-06T12:42:09.741Z,100715.83
2018-05-06T12:44:35.804Z,100714.22
2018-05-06T12:47:01.810Z,100709.07
2018-05-06T12:49:27.867Z,100707.41
2018-05-06T12:51:54.181Z,100706.16
2018-05-06T12:54:20.481Z,100696.22
2018-05-06T12:56:46.599Z,100692.34
2018-05-06T12:59:12.554Z,100692.34
2018-05-06T13:01:38.612Z,100694.94
2018-05-06T13:04:04.627Z,100694.77
2018-05-06T13:06:30.647Z,100694.69
2018-05-06T13:08:56.709Z,100692.45
2018-05-06T13:11:22.760Z,100687.05
2018-05-06T13:13:48.700Z,100673.34
2018-05-06T13:16:14.701Z,100671.84
2018-05-06T13:18:40.722Z,100679.52
2018-05-06T13:21:06.751Z,100676.52
2018-05-06T13:23:32.707Z,100674.01
2018-05-06T13:25:58.660Z,100668.59
2018-05-06T13:28:25.329Z,100669.41
2018-05-06T13:30:51.305Z,100670.06
2018-05-06T13:33:17.287Z,100673.66
2018-05-06T13:35:43.241Z,100661.80
2018-05-06T13:38:09.178Z,100667.57
2018-05-06T13:40:35.164Z,100664.95
2018-05-06T13:43:01.110Z,100667.48
2018-05-06T13:45:27.152Z,100656.89
2018-05-06T13:47:54.066Z,100647.53
2018-05-06T13:50:20.022Z,100652.44
2018-05-06T13:52:46.289Z,100652.41
2018-05-06T13:55:12.265Z,100655.84
2018-05-06T13:57:38.238Z,100655.58
2018-05-06T14:00:04.195Z,100655.16
2018-05-06T14:02:30.139Z,100643.91
2018-05-06T14:04:56.092Z,100641.45
2018-05-06T14:07:22.081Z,100650.28
2018-05-06T14:09:48.096Z,100645.12
2018-05-06T14:12:14.115Z,100643.58
2018-05-06T14:14:40.126Z,100655.44
2018-05-06T14:17:06.102Z,100645.47
2018-05-06T14:19:32.079Z,100638.61
2018-05-06T14:21:58.085Z,100643.70
2018-05-06T14:24:24.021Z,100644.92
2018-05-06T14:26:50.045Z,100644.21
2018-05-06T14:29:16.093Z,100638.34
2018-05-06T14:31:42.150Z,100640.02
2018-05-06T14:34:08.265Z,100633.49
2018-05-06T14:36:34.265Z,100631.16
2018-05-06T14:39:00.526Z,100638.28
2018-05-06T14:41:26.604Z,100636.57
2018-05-06T14:43:52.897Z,100637.11
2018-05-06T14:46:18.880Z,100646.09
2018-05-06T14:48:44.840Z,100632.05
2018-05-06T14:51:10.815Z,100623.96
2018-05-06T14:53:36.826Z,100635.44
2018-05-06T14:56:02.822Z,100631.64
2018-05-06T14:58:28.812Z,100631.48
2018-05-06T15:00:54.808Z,100629.73
2018-05-06T15:03:20.803Z,100626.11
2018-05-06T15:05:46.822Z,100638.88
2018-05-06T15:08:14.900Z,100627.84
2018-05-06T15:10:42.686Z,100625.42
2018-05-06T15:13:08.607Z,100622.87
2018-05-06T15:15:36.658Z,100630.22
2018-05-06T15:18:02.576Z,100620.83
2018-05-06T15:20:28.630Z,100614.23
2018-05-06T15:22:54.678Z,100615.45
2018-05-06T15:25:20.859Z,100618.05
2018-05-06T15:27:46.897Z,100610.89
2018-05-06T15:30:12.867Z,100608.67
2018-05-06T15:32:38.838Z,100608.65
2018-05-06T15:35:05.775Z,100616.29
2018-05-06T15:37:31.776Z,100619.24
2018-05-06T15:39:57.864Z,100622.80
2018-05-06T15:42:23.866Z,100619.46
2018-05-06T15:44:49.927Z,100608.48
2018-05-06T15:47:15.932Z,100605.80
2018-05-06T15:49:41.926Z,100614.37
2018-05-06T15:52:07.895Z,100608.36
2018-05-06T15:54:33.900Z,100607.03
2018-05-06T15:56:59.893Z,100604.10
2018-05-06T15:59:25.956Z,100601.62
2018-05-06T16:01:52.017Z,100600.69
2018-05-06T16:04:19.950Z,100589.67
2018-05-06T16:06:46.053Z,100600.63
2018-05-06T16:09:12.004Z,100597.19
2018-05-06T16:11:37.970Z,100597.59
2018-05-06T16:14:03.918Z,100598.42
2018-05-06T16:16:30.101Z,100594.98
2018-05-06T16:18:56.065Z,100587.37
2018-05-06T16:21:22.025Z,100587.11
2018-05-06T16:23:48.514Z,100584.05
2018-05-06T16:26:15.504Z,100578.59
2018-05-06T16:28:41.666Z,100585.44
2018-05-06T16:31:07.731Z,100583.33
2018-05-06T16:33:33.744Z,100587.53
2018-05-06T16:35:59.731Z,100581.12
2018-05-06T16:38:25.912Z,100587.04
2018-05-06T16:40:51.888Z,100588.91
2018-05-06T16:43:17.959Z,100576.53
2018-05-06T16:45:43.989Z,100589.76
2018-05-06T16:48:09.953Z,100585.50
2018-05-06T16:50:36.024Z,100584.17
2018-05-06T16:53:02.146Z,100588.43
2018-05-06T16:55:28.470Z,100582.45
2018-05-06T16:57:54.516Z,100586.99
2018-05-06T17:00:20.530Z,100582.44
2018-05-06T17:02:46.517Z,100580.50
2018-05-06T17:05:12.489Z,100585.16
2018-05-06T17:07:38.430Z,100585.22
2018-05-06T17:10:04.369Z,100584.38
2018-05-06T17:12:30.395Z,100584.53
2018-05-06T17:14:56.339Z,100584.22
2018-05-06T17:17:22.356Z,100577.08
2018-05-06T17:19:48.429Z,100585.59
2018-05-06T17:22:14.401Z,100588.58
2018-05-06T17:24:40.362Z,100591.53
2018-05-06T17:27:06.382Z,100584.29
2018-05-06T17:29:32.563Z,100592.44
2018-05-06T17:31:58.659Z,100584.65
2018-05-06T17:34:24.679Z,100599.20
2018-05-06T17:36:55.775Z,100585.53
2018-05-06T17:39:22.785Z,100584.16
2018-05-06T17:41:48.788Z,100588.88
2018-05-06T17:44:14.796Z,100588.88
2018-05-06T17:46:40.848Z,100592.27
2018-05-06T17:49:06.858Z,100594.07
2018-05-06T17:51:33.916Z,100596.27
2018-05-06T17:53:59.935Z,100594.92
2018-05-06T17:56:25.915Z,100597.16
2018-05-06T17:58:51.984Z,100595.94
2018-05-06T18:01:18.162Z,100600.46
2018-05-06T18:03:44.221Z,100596.20
2018-05-06T18:06:13.475Z,100601.46
2018-05-06T18:08:39.435Z,100595.06
2018-05-06T18:11:06.499Z,100600.19
2018-05-06T18:13:32.541Z,100599.29
2018-05-06T18:15:58.561Z,100596.02
2018-05-06T18:18:24.559Z,100593.40
2018-05-06T18:20:51.542Z,100595.55
2018-05-06T18:23:18.589Z,100588.80
2018-05-06T18:25:44.570Z,100589.37
2018-05-06T18:28:10.650Z,100592.40
2018-05-06T18:30:38.771Z,100593.25
2018-05-06T18:33:05.062Z,100593.36
2018-05-06T18:35:31.056Z,100596.33
2018-05-06T18:37:58.112Z,100600.55
2018-05-06T18:40:24.102Z,100600.47
2018-05-06T18:42:50.225Z,100604.02
2018-05-06T18:45:17.325Z,100609.59
2018-05-06T18:47:43.442Z,100606.55
2018-05-06T18:50:09.493Z,100613.06
2018-05-06T18:52:35.615Z,100614.77
2018-05-06T18:55:01.710Z,100619.87
2018-05-06T18:57:29.869Z,100617.77
2018-05-06T18:59:55.840Z,100622.38
2018-05-06T19:02:21.796Z,100620.62
2018-05-06T19:04:49.022Z,100622.81
2018-05-06T19:07:15.002Z,100622.38
2018-05-06T19:09:41.060Z,100618.72
2018-05-06T19:12:07.197Z,100622.95
2018-05-06T19:14:33.285Z,100624.58
2018-05-06T19:16:59.406Z,100619.53
2018-05-06T19:19:26.516Z,100623.81
2018-05-06T19:21:52.592Z,100624.21
2018-05-06T19:24:18.610Z,100619.09
2018-05-06T19:26:44.750Z,100620.91
2018-05-06T19:29:10.812Z,100629.87
2018-05-06T19:31:42.434Z,100627.27
2018-05-06T19:34:09.456Z,100627.29
2018-05-06T19:36:35.457Z,100625.24
2018-05-06T19:39:01.547Z,100626.08
2018-05-06T19:41:27.629Z,100629.47
2018-05-06T19:43:53.624Z,100627.44
2018-05-06T19:46:19.738Z,100629.64
2018-05-06T19:48:45.878Z,100623.67
2018-05-06T19:51:11.810Z,100627.13
2018-05-06T19:53:37.849Z,100630.86
2018-05-06T19:56:04.046Z,100631.02
2018-05-06T19:58:30.099Z,100632.23
2018-05-06T20:00:57.082Z,100631.83
2018-05-06T20:03:27.902Z,100625.07
2018-05-06T20:05:54.348Z,100630.34
2018-05-06T20:08:20.464Z,100633.85
2018-05-06T20:10:46.642Z,100629.70
2018-05-06T20:13:12.701Z,100630.16
2018-05-06T20:15:38.713Z,100624.98
2018-05-06T20:18:06.821Z,100619.92
2018-05-06T20:20:32.810Z,100619.84
2018-05-06T20:22:59.912Z,100624.17
2018-05-06T20:25:25.984Z,100629.00
2018-05-06T20:27:52.022Z,100627.16
2018-05-06T20:30:18.149Z,100629.80
2018-05-06T20:35:17.225Z,100628.27
2018-05-06T20:37:43.441Z,100630.00
2018-05-06T20:40:09.428Z,100626.20
2018-05-06T20:42:35.395Z,100633.11
2018-05-06T20:45:01.375Z,100632.28
2018-05-06T20:47:27.370Z,100640.37
2018-05-06T20:49:53.350Z,100642.84
2018-05-06T20:52:19.420Z,100639.85
2018-05-06T20:54:45.378Z,100642.50
2018-05-06T20:57:11.343Z,100645.08
2018-05-06T20:59:37.313Z,100641.69
2018-05-06T21:02:03.357Z,100639.66
2018-05-06T21:04:29.550Z,100637.14
2018-05-06T21:06:55.557Z,100635.48
2018-05-06T21:09:21.511Z,100633.78
2018-05-06T21:11:47.445Z,100632.53
2018-05-06T21:14:13.402Z,100638.84
2018-05-06T21:16:39.362Z,100634.61
2018-05-06T21:19:05.395Z,100632.52
2018-05-06T21:21:31.342Z,100635.47
2018-05-06T21:23:57.365Z,100636.77
2018-05-06T21:26:23.399Z,100633.80
2018-05-06T21:28:49.871Z,100624.45
2018-05-06T21:31:15.872Z,100626.14
2018-05-06T21:33:41.845Z,100632.97
2018-05-06T21:36:07.833Z,100623.60
2018-05-06T21:38:33.892Z,100624.80
2018-05-06T21:40:59.859Z,100628.64
2018-05-06T21:43:25.886Z,100625.69
2018-05-06T21:45:51.847Z,100629.08
2018-05-06T21:48:17.808Z,100626.55
2018-05-06T21:50:43.791Z,100629.06
2018-05-06T21:53:09.833Z,100624.00
2018-05-06T21:55:35.877Z,100629.94
2018-05-06T21:58:02.013Z,100620.19
2018-05-06T22:00:27.996Z,100623.13
2018-05-06T22:02:53.950Z,100625.26
2018-05-06T22:05:19.890Z,100629.08
2018-05-06T22:07:45.850Z,100623.16
2018-05-06T22:10:11.839Z,100627.80
2018-05-06T22:12:37.813Z,100631.95
2018-05-06T22:15:03.765Z,100632.79
2018-05-06T22:17:29.715Z,100634.96
2018-05-06T22:19:55.657Z,100639.66
2018-05-06T22:22:21.604Z,100639.97
2018-05-06T22:24:47.570Z,100635.72
2018-05-06T22:27:13.514Z,100635.68
2018-05-06T22:29:39.466Z,100634.08
2018-05-06T22:32:05.415Z,100637.44
2018-05-06T22:34:31.361Z,100633.14
2018-05-06T22:36:57.320Z,100630.23
2018-05-06T22:39:23.298Z,100630.30
2018-05-06T22:41:49.238Z,100632.39
2018-05-06T22:44:15.218Z,100632.39
2018-05-06T22:46:41.166Z,100628.13
2018-05-06T22:49:07.151Z,100626.41
2018-05-06T22:54:05.398Z,100626.38
2018-05-06T22:56:31.417Z,100627.98
2018-05-06T22:58:57.351Z,100630.53
2018-05-06T23:01:23.292Z,100626.61
2018-05-06T23:03:49.234Z,100627.00
2018-05-06T23:06:15.176Z,100633.41
2018-05-06T23:08:41.165Z,100625.78
2018-05-06T23:11:07.134Z,100622.45
2018-05-06T23:13:33.152Z,100620.17
2018-05-06T23:15:59.032Z,100623.55
2018-05-06T23:18:24.988Z,100621.53
2018-05-06T23:20:51.007Z,100617.98
2018-05-06T23:23:16.903Z,100621.46
2018-05-06T23:25:42.907Z,100621.89
2018-05-06T23:28:08.869Z,100621.89
2018-05-06T23:30:34.819Z,100626.17
2018-05-06T23:33:00.766Z,100630.80
2018-05-06T23:35:26.758Z,100630.34
2018-05-06T23:37:52.640Z,100630.36
2018-05-06T23:40:18.584Z,100631.28
2018-05-06T23:42:44.525Z,100637.16
2018-05-06T23:45:10.489Z,100644.39
2018-05-06T23:47:36.464Z,100640.78
2018-05-06T23:50:02.440Z,100636.96
2018-05-06T23:52:28.372Z,100635.42
2018-05-06T23:54:54.326Z,100631.13
2018-05-06T23:57:20.283Z,100630.27
2018-05-06T23:59:46.247Z,100631.40
